Map

Track Data

SID SEASON NUMBER BASIN SUBBASIN NAME ISO_TIME NATURE LAT LON WMO_WIND WMO_PRES WMO_AGENCY TRACK_TYPE DIST2LAND LANDFALL IFLAG USA_AGENCY USA_ATCF_ID USA_LAT USA_LON USA_RECORD USA_STATUS USA_WIND USA_PRES USA_SSHS USA_R34_NE USA_R34_SE USA_R34_SW USA_R34_NW USA_R50_NE USA_R50_SE USA_R50_SW USA_R50_NW USA_R64_NE USA_R64_SE USA_R64_SW USA_R64_NW USA_POCI USA_ROCI USA_RMW USA_EYE TOKYO_LAT TOKYO_LON TOKYO_GRADE TOKYO_WIND TOKYO_PRES TOKYO_R50_DIR TOKYO_R50_LONG TOKYO_R50_SHORT TOKYO_R30_DIR TOKYO_R30_LONG TOKYO_R30_SHORT TOKYO_LAND CMA_LAT CMA_LON CMA_CAT CMA_WIND CMA_PRES HKO_LAT HKO_LON HKO_CAT HKO_WIND HKO_PRES NEWDELHI_LAT NEWDELHI_LON NEWDELHI_GRADE NEWDELHI_WIND NEWDELHI_PRES NEWDELHI_CI NEWDELHI_DP NEWDELHI_POCI REUNION_LAT REUNION_LON REUNION_TYPE REUNION_WIND REUNION_PRES REUNION_TNUM REUNION_CI REUNION_RMW REUNION_R34_NE REUNION_R34_SE REUNION_R34_SW REUNION_R34_NW REUNION_R50_NE REUNION_R50_SE REUNION_R50_SW REUNION_R50_NW REUNION_R64_NE REUNION_R64_SE REUNION_R64_SW REUNION_R64_NW BOM_LAT BOM_LON BOM_TYPE BOM_WIND BOM_PRES BOM_TNUM BOM_CI BOM_RMW BOM_R34_NE BOM_R34_SE BOM_R34_SW BOM_R34_NW BOM_R50_NE BOM_R50_SE BOM_R50_SW BOM_R50_NW BOM_R64_NE BOM_R64_SE BOM_R64_SW BOM_R64_NW BOM_ROCI BOM_POCI BOM_EYE BOM_POS_METHOD BOM_PRES_METHOD NADI_LAT NADI_LON NADI_CAT NADI_WIND NADI_PRES WELLINGTON_LAT WELLINGTON_LON WELLINGTON_WIND WELLINGTON_PRES DS824_LAT DS824_LON DS824_STAGE DS824_WIND DS824_PRES TD9636_LAT TD9636_LON TD9636_STAGE TD9636_WIND TD9636_PRES TD9635_LAT TD9635_LON TD9635_WIND TD9635_PRES TD9635_ROCI NEUMANN_LAT NEUMANN_LON NEUMANN_CLASS NEUMANN_WIND NEUMANN_PRES MLC_LAT MLC_LON MLC_CLASS MLC_WIND MLC_PRES USA_GUST BOM_GUST BOM_GUST_PER REUNION_GUST REUNION_GUST_PER USA_SEAHGT USA_SEARAD_NE USA_SEARAD_SE USA_SEARAD_SW USA_SEARAD_NW STORM_SPEED STORM_DIR
1961282N20079 1961 104 NI BB NOT_NAMED 1961-10-08 18:00:00 TS 19.5000 78.8000 main 0 0 O________O____ jtwc_io IO171961 19.5000 78.8000 -1 19.5000 78.8000 TC 2 343
1961282N20079 1961 104 NI BB NOT_NAMED 1961-10-08 21:00:00 TS 19.6000 78.7625 main 0 0 P________P____ IO171961 19.6000 78.7625 -1 19.6000 78.7625 TC 2 333
1961282N20079 1961 104 NI BB NOT_NAMED 1961-10-09 00:00:00 TS 19.7000 78.7000 main 0 0 O________O____ jtwc_io IO171961 19.7000 78.7000 -1 19.7000 78.7000 TC 25 3 322
1961282N20079 1961 104 NI BB NOT_NAMED 1961-10-09 03:00:00 TS 19.8000 78.6000 main 0 0 P________PO___ IO171961 19.8000 78.6000 -1 19.8000 78.6000 TC 25 19.8000 78.6000 1 3 317
1961282N20079 1961 104 NI BB NOT_NAMED 1961-10-09 06:00:00 TS 19.9013 78.5041 main 0 0 O________OP___ jtwc_io IO171961 19.9000 78.5000 -1 19.9000 78.5000 TC 25 19.9063 78.5204 1 2 325
1961282N20079 1961 104 NI BB NOT_NAMED 1961-10-09 09:00:00 TS 20.0027 78.4480 main 0 0 P________PP___ IO171961 20.0000 78.4500 -1 20.0000 78.4500 TC 25 20.0101 78.4426 1 2 333
1961282N20079 1961 104 NI BB NOT_NAMED 1961-10-09 12:00:00 TS 20.1029 78.3895 main 0 0 O________OP___ jtwc_io IO171961 20.1000 78.4000 -1 20.1000 78.4000 TC 25 20.1088 78.3685 1 2 326
1961282N20079 1961 104 NI BB NOT_NAMED 1961-10-09 15:00:00 TS 20.2050 78.3000 main 0 0 P________PO___ IO171961 20.2075 78.3000 -1 20.2075 78.3000 TC 25 20.2000 78.3000 1 3 319
1961282N20079 1961 104 NI BB NOT_NAMED 1961-10-09 18:00:00 TS 20.2940 78.2124 main 0 0 O________OP___ jtwc_io IO171961 20.3000 78.2000 -1 20.3000 78.2000 TC 25 20.2821 78.2371 1 2 318
1961282N20079 1961 104 NI BB NOT_NAMED 1961-10-09 21:00:00 TS 20.3525 78.1574 main 0 0 P________PP___ IO171961 20.3500 78.1500 -1 20.3500 78.1500 TC 25 20.3574 78.1724 1 2 317
1961282N20079 1961 104 NI BB NOT_NAMED 1961-10-10 00:00:00 TS 20.4097 78.0988 main 0 0 O________OP___ jtwc_io IO171961 20.4000 78.1000 -1 20.4000 78.1000 TC 25 20.4290 78.0965 1 2 318
1961282N20079 1961 104 NI BB NOT_NAMED 1961-10-10 03:00:00 TS 20.5000 78.0150 main 0 0 P________PO___ IO171961 20.5000 78.0225 -1 20.5000 78.0225 TC 25 20.5000 78.0000 1 3 313
1961282N20079 1961 104 NI AS NOT_NAMED 1961-10-10 06:00:00 TS 20.5917 77.8878 main 0 0 O________OP___ jtwc_io IO171961 20.6000 77.9000 -1 20.6000 77.9000 TC 25 20.5751 77.8635 1 3 297
1961282N20079 1961 104 NI AS NOT_NAMED 1961-10-10 09:00:00 TS 20.6501 77.7025 main 0 0 P________PP___ IO171961 20.6501 77.7000 -1 20.6501 77.7000 TC 25 20.6501 77.7076 1 4 289
1961282N20079 1961 104 NI AS NOT_NAMED 1961-10-10 12:00:00 TS 20.7084 77.5160 main 0 0 O________OP___ jtwc_io IO171961 20.7000 77.5000 -1 20.7000 77.5000 TC 25 20.7251 77.5478 1 3 297
1961282N20079 1961 104 NI AS NOT_NAMED 1961-10-10 15:00:00 TS 20.8000 77.3900 main 0 0 P________PO___ IO171961 20.8000 77.3850 -1 20.8000 77.3850 TC 25 20.8000 77.4000 1 3 310
1961282N20079 1961 104 NI AS NOT_NAMED 1961-10-10 18:00:00 TS 20.8781 77.2965 main 0 0 O________OP___ jtwc_io IO171961 20.9000 77.3000 -1 20.9000 77.3000 TC 25 20.8343 77.2894 1 2 304
1961282N20079 1961 104 NI AS NOT_NAMED 1961-10-10 21:00:00 TS 20.9200 77.1973 main 0 0 P________PP___ IO171961 20.9425 77.2000 -1 20.9425 77.2000 TC 25 20.8749 77.1920 1 2 300
1961282N20079 1961 104 NI AS NOT_NAMED 1961-10-11 00:00:00 TS 20.9844 77.0996 main 0 0 O________OP___ jtwc_io IO171961 21.0000 77.1000 -1 21.0000 77.1000 TC 25 20.9531 77.0987 1 3 315
1961282N20079 1961 104 NI AS NOT_NAMED 1961-10-11 03:00:00 TS 21.0983 77.0049 main 0 0 P________PO___ IO171961 21.0975 77.0074 -1 21.0975 77.0074 TC 25 21.1000 77.0000 1 4 330
1961282N20079 1961 104 NI AS NOT_NAMED 1961-10-11 06:00:00 TS 21.3232 76.8861 main 0 0 O________OP___ jtwc_io IO171961 21.3000 76.9000 -1 21.3000 76.9000 TC 25 21.3695 76.8584 1 6 337
1961282N20079 1961 104 NI AS NOT_NAMED 1961-10-11 09:00:00 TS 21.6917 76.7379 main 0 0 P________PP___ IO171961 21.6850 76.7502 -1 21.6850 76.7502 TC 25 21.7051 76.7134 1 8 341
1961282N20079 1961 104 NI AS NOT_NAMED 1961-10-11 12:00:00 TS 22.0877 76.5955 main 0 0 O________OP___ jtwc_io IO171961 22.1000 76.6000 -1 22.1000 76.6000 TC 25 22.0632 76.5865 1 7 341
1961282N20079 1961 104 NI AS NOT_NAMED 1961-10-11 15:00:00 TS 22.3867 76.4850 main 0 0 P________PO___ IO171961 22.3800 76.4774 -1 22.3800 76.4774 TC 25 22.4000 76.5000 1 5 342
1961282N20079 1961 104 NI AS NOT_NAMED 1961-10-11 18:00:00 TS 22.6070 76.4099 main 0 0 O________OP___ jtwc_io IO171961 22.6000 76.4000 -1 22.6000 76.4000 TC 25 22.6209 76.4297 1 4 346
1961282N20079 1961 104 NI AS NOT_NAMED 1961-10-11 21:00:00 TS 22.7964 76.3730 main 0 0 P________PP___ IO171961 22.7849 76.3551 -1 22.7849 76.3551 TC 25 22.8194 76.4087 1 4 0
1961282N20079 1961 104 NI AS NOT_NAMED 1961-10-12 00:00:00 TS 23.0111 76.4195 main 0 0 O________OP___ jtwc_io IO171961 23.0000 76.4000 -1 23.0000 76.4000 TC 25 23.0332 76.4584 1 5 18
1961282N20079 1961 104 NI AS NOT_NAMED 1961-10-12 03:00:00 TS 23.3083 76.5602 main 0 0 P________PO___ IO171961 23.3124 76.5402 -1 23.3124 76.5402 TC 25 23.3000 76.6000 1 8 28
1961282N20079 1961 104 NI AS NOT_NAMED 1961-10-12 06:00:00 TS 23.6919 76.8119 main 0 0 O________OP___ jtwc_io IO171961 23.7000 76.8000 -1 23.7000 76.8000 TC 25 23.6757 76.8356 1 10 34
1961282N20079 1961 104 NI AS NOT_NAMED 1961-10-12 09:00:00 TS 24.1301 77.1680 main 0 0 P________PP___ IO171961 24.1426 77.1698 -1 24.1426 77.1698 TC 25 24.1050 77.1643 1 11 38
1961282N20079 1961 104 NI AS NOT_NAMED 1961-10-12 12:00:00 TS 24.5856 77.5870 main 0 0 O________OP___ jtwc_io IO171961 24.6000 77.6000 -1 24.6000 77.6000 TC 25 24.5568 77.5609 1 12 40
1961282N20079 1961 104 NI AS NOT_NAMED 1961-10-12 15:00:00 TS 25.0098 77.9903 main 0 0 P________PO___ IO171961 25.0148 77.9854 -1 25.0148 77.9854 TC 25 25.0000 78.0000 1 11 43
1961282N20079 1961 104 NI BB NOT_NAMED 1961-10-12 18:00:00 TS 25.4042 78.4236 main 0 0 O________OP___ jtwc_io IO171961 25.4000 78.4000 -1 25.4000 78.4000 TC 25 25.4105 78.4591 1 11 47
1961282N20079 1961 104 NI BB NOT_NAMED 1961-10-12 21:00:00 TS 25.7722 78.9015 main 0 0 P________PP___ IO171961 25.7580 78.8793 -1 25.7580 78.8793 TC 25 25.7911 78.9310 1 11 51
1961282N20079 1961 104 NI BB NOT_NAMED 1961-10-13 00:00:00 TS 26.1255 79.4062 main 0 0 O________OP___ jtwc_io IO171961 26.1000 79.4000 -1 26.1000 79.4000 TC 25 26.1511 79.4124 1 12 51
1961282N20079 1961 104 NI BB NOT_NAMED 1961-10-13 03:00:00 NR 26.5000 79.9000 main 0 __________O___ IO171961 -1 TC 26.5000 79.9000 1 12 50

About IBTrACS Database

This database is a web-friendly format of International Best Track Archive for Climate Stewardship (IBTrACS), a global best track data archive curated by NOAA dating back to 1842.

Updated: 2021-12-06